Accueil
METAR-TAF:

METAR-TAF

Aéroports :

Lleida, Espagne

Lleida-Alguaire

latitude: 41-43-40N, longitude: 000-32-09E, altitude: 350 m

METAR: absent

Heure: 02:55 (00:55 UTC)

Prévision

Le bulletin a été fait il y a 10 heures et 55 minutes, à 14:00 UTC
Prévision valable du 22 à 15 UTC au 23 à 15 UTC
Vent 8 kt de sud/sud-est
Visibilité 10 km ou plus
Quelques nuages à une hauteur de 5000 ft
Evoluant progressivement
du 22 à 20 UTC au 22 à 22 UTC
Vent 5 kt de est

TAF: LEDA 221400Z 2215/2315 16008KT 9999 FEW050 TX26/2313Z TN11/2306Z BECMG 2220/2222 10005KT

Observations et prévisions météorologiques de plus de 4000 aéroports (messages METAR et TAF).

Les stations disponibles sont représentées par des disques jaunes et rouges sur la carte.

Passer la souris dessus pour voir le nom de la station.

Cliquer dessus pour voir les observations et prévisions météorologiques.

Pour changer de carte: cliquez sur les boutons verts avec une croix noire pour zoomer, sur le bouton vert avec un tiret pour effectuer un zoom arrière, ou sur les flèches vertes pour les cartes adjacentes.


METAR-TAF: